Fallon, Montana
Current Conditions -  °F | °C
As of 6:35 PM on Thursday 18 Dec 2014 (Local Time) from KGDV Reporting Station
Broken Clouds Broken Clouds  
Wind Chill: -8°   Ceiling: 11000
Heat Index: -3°   Visibility: 10mi
Dew Point: -5°   Wind: 8mph
Humidity: 86%   Direction: 200°SSW
Pressure: 29.93"   Gusts: NA
Location:  46.83°N, 105.13°W
Report Text: KGDV 190135Z AUTO 20007KT 10SM BKN110 M03/M05 A2993 RMK AO1
Loading
Personal Weather Stations






























Interactive Weather Map New forecast layout! Learn more

10-Day Weather Forecast

Advertisements
Track Severe Weather on mobile